sensor_id;sensor_type;location;lat;lon;timestamp;pressure;altitude;pressure_sealevel;temperature;humidity
79538;BME280;68989;52.032;5.152;2023-11-19T00:01:28;100911.32;;;18.42;66.56
79538;BME280;68989;52.032;5.152;2023-11-19T00:03:54;100906.57;;;18.44;66.40
79538;BME280;68989;52.032;5.152;2023-11-19T00:06:22;100906.31;;;18.42;66.43
79538;BME280;68989;52.032;5.152;2023-11-19T00:08:49;100903.45;;;18.43;66.35
79538;BME280;68989;52.032;5.152;2023-11-19T00:11:16;100895.23;;;18.45;66.38
79538;BME280;68989;52.032;5.152;2023-11-19T00:13:43;100898.25;;;18.45;66.47
79538;BME280;68989;52.032;5.152;2023-11-19T00:16:15;100892.67;;;18.47;66.39
79538;BME280;68989;52.032;5.152;2023-11-19T00:18:42;100887.56;;;18.46;66.49
79538;BME280;68989;52.032;5.152;2023-11-19T00:21:09;100892.03;;;18.44;66.44
79538;BME280;68989;52.032;5.152;2023-11-19T00:23:36;100896.67;;;18.44;66.46
79538;BME280;68989;52.032;5.152;2023-11-19T00:26:04;100891.96;;;18.46;66.24
79538;BME280;68989;52.032;5.152;2023-11-19T00:28:31;100899.02;;;18.46;66.38
79538;BME280;68989;52.032;5.152;2023-11-19T00:30:58;100907.10;;;18.47;66.28
79538;BME280;68989;52.032;5.152;2023-11-19T00:33:25;100907.71;;;18.48;66.49
79538;BME280;68989;52.032;5.152;2023-11-19T00:35:53;100905.25;;;18.48;66.35
79538;BME280;68989;52.032;5.152;2023-11-19T00:38:19;100908.97;;;18.46;66.67
79538;BME280;68989;52.032;5.152;2023-11-19T00:40:46;100895.61;;;18.48;66.50
79538;BME280;68989;52.032;5.152;2023-11-19T00:43:13;100896.28;;;18.51;66.44
79538;BME280;68989;52.032;5.152;2023-11-19T00:45:40;100889.52;;;18.47;66.54
79538;BME280;68989;52.032;5.152;2023-11-19T00:48:07;100876.43;;;18.48;66.60
79538;BME280;68989;52.032;5.152;2023-11-19T00:50:34;100875.73;;;18.50;66.53
79538;BME280;68989;52.032;5.152;2023-11-19T00:53:02;100876.09;;;18.50;66.48
79538;BME280;68989;52.032;5.152;2023-11-19T00:55:29;100860.66;;;18.50;66.38
79538;BME280;68989;52.032;5.152;2023-11-19T00:57:56;100863.19;;;18.50;66.27
79538;BME280;68989;52.032;5.152;2023-11-19T01:00:23;100864.05;;;18.49;66.14
79538;BME280;68989;52.032;5.152;2023-11-19T01:02:51;100870.80;;;18.49;66.17
79538;BME280;68989;52.032;5.152;2023-11-19T01:05:18;100864.79;;;18.48;66.12
79538;BME280;68989;52.032;5.152;2023-11-19T01:07:45;100868.99;;;18.43;66.16
79538;BME280;68989;52.032;5.152;2023-11-19T01:10:12;100869.95;;;18.42;66.29
79538;BME280;68989;52.032;5.152;2023-11-19T01:12:39;100873.43;;;18.42;66.35
79538;BME280;68989;52.032;5.152;2023-11-19T01:15:07;100869.75;;;18.42;66.27
79538;BME280;68989;52.032;5.152;2023-11-19T01:17:34;100853.99;;;18.42;66.44
79538;BME280;68989;52.032;5.152;2023-11-19T01:20:03;100843.57;;;18.43;66.37
79538;BME280;68989;52.032;5.152;2023-11-19T01:22:30;100844.75;;;18.44;66.35
79538;BME280;68989;52.032;5.152;2023-11-19T01:24:57;100842.08;;;18.46;66.26
79538;BME280;68989;52.032;5.152;2023-11-19T01:27:24;100848.43;;;18.47;66.41
79538;BME280;68989;52.032;5.152;2023-11-19T01:29:52;100837.11;;;18.48;66.11
79538;BME280;68989;52.032;5.152;2023-11-19T01:32:18;100839.60;;;18.47;66.12
79538;BME280;68989;52.032;5.152;2023-11-19T01:34:46;100844.86;;;18.47;65.90
79538;BME280;68989;52.032;5.152;2023-11-19T01:37:13;100854.92;;;18.48;65.73
79538;BME280;68989;52.032;5.152;2023-11-19T01:39:43;100857.80;;;18.46;65.63
79538;BME280;68989;52.032;5.152;2023-11-19T01:42:10;100855.83;;;18.45;65.63
79538;BME280;68989;52.032;5.152;2023-11-19T01:44:38;100857.75;;;18.44;65.64
79538;BME280;68989;52.032;5.152;2023-11-19T01:47:06;100853.58;;;18.42;65.54
79538;BME280;68989;52.032;5.152;2023-11-19T01:49:34;100846.30;;;18.42;65.35
79538;BME280;68989;52.032;5.152;2023-11-19T01:52:02;100840.54;;;18.41;65.27
79538;BME280;68989;52.032;5.152;2023-11-19T01:54:29;100841.31;;;18.39;65.05
79538;BME280;68989;52.032;5.152;2023-11-19T01:56:56;100844.05;;;18.37;64.85
79538;BME280;68989;52.032;5.152;2023-11-19T01:59:24;100853.45;;;18.34;64.57
79538;BME280;68989;52.032;5.152;2023-11-19T02:02:39;100839.11;;;18.28;64.44
79538;BME280;68989;52.032;5.152;2023-11-19T02:05:07;100841.41;;;18.24;64.33
79538;BME280;68989;52.032;5.152;2023-11-19T02:07:34;100847.66;;;18.21;64.19
79538;BME280;68989;52.032;5.152;2023-11-19T02:10:00;100847.12;;;18.18;64.00
79538;BME280;68989;52.032;5.152;2023-11-19T02:12:27;100845.34;;;18.12;63.86
79538;BME280;68989;52.032;5.152;2023-11-19T02:14:54;100852.13;;;18.07;63.67
79538;BME280;68989;52.032;5.152;2023-11-19T02:17:25;100846.26;;;18.04;63.82
79538;BME280;68989;52.032;5.152;2023-11-19T02:19:53;100850.75;;;18.00;63.72
79538;BME280;68989;52.032;5.152;2023-11-19T02:22:21;100851.96;;;17.97;63.61
79538;BME280;68989;52.032;5.152;2023-11-19T02:24:51;100856.49;;;17.94;63.54
79538;BME280;68989;52.032;5.152;2023-11-19T02:27:28;100866.23;;;17.91;63.43
79538;BME280;68989;52.032;5.152;2023-11-19T02:29:57;100866.28;;;17.88;63.33
79538;BME280;68989;52.032;5.152;2023-11-19T02:32:27;100864.72;;;17.85;63.35
79538;BME280;68989;52.032;5.152;2023-11-19T02:34:54;100855.55;;;17.79;63.28
79538;BME280;68989;52.032;5.152;2023-11-19T02:37:22;100855.67;;;17.75;63.40
79538;BME280;68989;52.032;5.152;2023-11-19T02:39:49;100855.00;;;17.74;63.37
79538;BME280;68989;52.032;5.152;2023-11-19T02:42:16;100859.51;;;17.70;63.35
79538;BME280;68989;52.032;5.152;2023-11-19T02:44:44;100855.38;;;17.68;63.36
79538;BME280;68989;52.032;5.152;2023-11-19T02:47:11;100858.44;;;17.66;63.33
79538;BME280;68989;52.032;5.152;2023-11-19T02:49:38;100857.28;;;17.65;63.33
79538;BME280;68989;52.032;5.152;2023-11-19T02:52:06;100848.83;;;17.63;63.24
79538;BME280;68989;52.032;5.152;2023-11-19T02:54:34;100851.41;;;17.61;63.20
79538;BME280;68989;52.032;5.152;2023-11-19T02:57:01;100842.71;;;17.58;63.37
79538;BME280;68989;52.032;5.152;2023-11-19T02:59:28;100845.07;;;17.57;63.17
79538;BME280;68989;52.032;5.152;2023-11-19T03:01:57;100841.05;;;17.54;63.24
79538;BME280;68989;52.032;5.152;2023-11-19T03:04:24;100839.54;;;17.51;63.23
79538;BME280;68989;52.032;5.152;2023-11-19T03:06:50;100848.66;;;17.48;63.20
79538;BME280;68989;52.032;5.152;2023-11-19T03:09:17;100846.30;;;17.45;63.32
79538;BME280;68989;52.032;5.152;2023-11-19T03:11:44;100843.50;;;17.44;63.44
79538;BME280;68989;52.032;5.152;2023-11-19T03:14:11;100845.49;;;17.43;63.15
79538;BME280;68989;52.032;5.152;2023-11-19T03:16:39;100838.10;;;17.41;63.19
79538;BME280;68989;52.032;5.152;2023-11-19T03:19:05;100847.44;;;17.38;63.23
79538;BME280;68989;52.032;5.152;2023-11-19T03:21:33;100847.35;;;17.37;63.47
79538;BME280;68989;52.032;5.152;2023-11-19T03:24:00;100844.77;;;17.35;63.19
79538;BME280;68989;52.032;5.152;2023-11-19T03:26:27;100833.59;;;17.33;63.26
79538;BME280;68989;52.032;5.152;2023-11-19T03:28:55;100831.74;;;17.31;63.22
79538;BME280;68989;52.032;5.152;2023-11-19T03:31:22;100827.35;;;17.29;63.05
79538;BME280;68989;52.032;5.152;2023-11-19T03:33:49;100832.66;;;17.26;63.14
79538;BME280;68989;52.032;5.152;2023-11-19T03:36:16;100826.07;;;17.24;62.99
79538;BME280;68989;52.032;5.152;2023-11-19T03:38:43;100820.90;;;17.23;62.90
79538;BME280;68989;52.032;5.152;2023-11-19T03:41:10;100813.08;;;17.21;62.98
79538;BME280;68989;52.032;5.152;2023-11-19T03:43:39;100813.76;;;17.19;62.82
79538;BME280;68989;52.032;5.152;2023-11-19T03:46:16;100825.93;;;17.18;62.73
79538;BME280;68989;52.032;5.152;2023-11-19T03:48:43;100835.15;;;17.16;62.93
79538;BME280;68989;52.032;5.152;2023-11-19T03:51:10;100838.09;;;17.14;62.70
79538;BME280;68989;52.032;5.152;2023-11-19T03:53:39;100839.99;;;17.12;62.56
79538;BME280;68989;52.032;5.152;2023-11-19T03:56:07;100829.23;;;17.08;62.60
79538;BME280;68989;52.032;5.152;2023-11-19T03:58:33;100833.59;;;17.06;62.69
79538;BME280;68989;52.032;5.152;2023-11-19T04:01:01;100843.18;;;17.02;62.78
79538;BME280;68989;52.032;5.152;2023-11-19T04:03:27;100843.29;;;16.98;62.84
79538;BME280;68989;52.032;5.152;2023-11-19T04:05:55;100843.58;;;16.97;63.00
79538;BME280;68989;52.032;5.152;2023-11-19T04:08:22;100847.07;;;16.95;62.87
79538;BME280;68989;52.032;5.152;2023-11-19T04:10:49;100846.21;;;16.96;62.88
79538;BME280;68989;52.032;5.152;2023-11-19T04:13:16;100860.20;;;16.95;62.84
79538;BME280;68989;52.032;5.152;2023-11-19T04:15:44;100859.29;;;16.94;62.80
79538;BME280;68989;52.032;5.152;2023-11-19T04:18:10;100868.40;;;16.93;62.72
79538;BME280;68989;52.032;5.152;2023-11-19T04:20:38;100876.25;;;16.92;62.75
79538;BME280;68989;52.032;5.152;2023-11-19T04:23:04;100869.77;;;16.90;62.66
79538;BME280;68989;52.032;5.152;2023-11-19T04:25:32;100863.42;;;16.89;62.75
79538;BME280;68989;52.032;5.152;2023-11-19T04:27:59;100866.37;;;16.88;62.60
79538;BME280;68989;52.032;5.152;2023-11-19T04:30:25;100867.04;;;16.86;62.59
79538;BME280;68989;52.032;5.152;2023-11-19T04:32:52;100874.70;;;16.85;62.65
79538;BME280;68989;52.032;5.152;2023-11-19T04:35:19;100869.06;;;16.84;62.61
79538;BME280;68989;52.032;5.152;2023-11-19T04:37:46;100870.85;;;16.83;62.53
79538;BME280;68989;52.032;5.152;2023-11-19T04:40:13;100871.57;;;16.82;62.44
79538;BME280;68989;52.032;5.152;2023-11-19T04:42:41;100870.05;;;16.81;62.57
79538;BME280;68989;52.032;5.152;2023-11-19T04:45:08;100872.89;;;16.79;62.54
79538;BME280;68989;52.032;5.152;2023-11-19T04:47:36;100870.05;;;16.76;62.53
79538;BME280;68989;52.032;5.152;2023-11-19T04:50:03;100870.81;;;16.74;62.63
79538;BME280;68989;52.032;5.152;2023-11-19T04:52:30;100872.61;;;16.74;62.72
79538;BME280;68989;52.032;5.152;2023-11-19T04:54:57;100873.10;;;16.73;62.71
79538;BME280;68989;52.032;5.152;2023-11-19T04:57:25;100872.36;;;16.74;62.69
79538;BME280;68989;52.032;5.152;2023-11-19T04:59:51;100870.32;;;16.73;62.48
79538;BME280;68989;52.032;5.152;2023-11-19T05:02:18;100871.28;;;16.73;62.45
79538;BME280;68989;52.032;5.152;2023-11-19T05:04:45;100861.46;;;16.71;62.52
79538;BME280;68989;52.032;5.152;2023-11-19T05:07:12;100863.61;;;16.70;62.57
79538;BME280;68989;52.032;5.152;2023-11-19T05:09:41;100862.03;;;16.68;62.55
79538;BME280;68989;52.032;5.152;2023-11-19T05:12:08;100870.35;;;16.69;62.33
79538;BME280;68989;52.032;5.152;2023-11-19T05:14:35;100867.10;;;16.71;62.21
79538;BME280;68989;52.032;5.152;2023-11-19T05:17:03;100865.90;;;16.71;62.19
79538;BME280;68989;52.032;5.152;2023-11-19T05:19:30;100862.09;;;16.71;62.14
79538;BME280;68989;52.032;5.152;2023-11-19T05:21:57;100864.99;;;16.70;62.06
79538;BME280;68989;52.032;5.152;2023-11-19T05:24:24;100864.41;;;16.69;62.06
79538;BME280;68989;52.032;5.152;2023-11-19T05:26:52;100866.86;;;16.68;61.99
79538;BME280;68989;52.032;5.152;2023-11-19T05:29:19;100865.65;;;16.66;62.01
79538;BME280;68989;52.032;5.152;2023-11-19T05:31:46;100863.93;;;16.64;61.94
79538;BME280;68989;52.032;5.152;2023-11-19T05:34:13;100860.16;;;16.59;62.16
79538;BME280;68989;52.032;5.152;2023-11-19T05:36:41;100865.82;;;16.56;62.21
79538;BME280;68989;52.032;5.152;2023-11-19T05:39:08;100870.25;;;16.54;62.24
79538;BME280;68989;52.032;5.152;2023-11-19T05:41:35;100875.68;;;16.53;62.26
79538;BME280;68989;52.032;5.152;2023-11-19T05:44:03;100876.84;;;16.53;62.23
79538;BME280;68989;52.032;5.152;2023-11-19T05:46:29;100877.23;;;16.53;62.15
79538;BME280;68989;52.032;5.152;2023-11-19T05:48:57;100880.11;;;16.51;62.31
79538;BME280;68989;52.032;5.152;2023-11-19T05:51:24;100881.45;;;16.51;62.12
79538;BME280;68989;52.032;5.152;2023-11-19T05:53:51;100878.51;;;16.49;62.07
79538;BME280;68989;52.032;5.152;2023-11-19T05:56:19;100876.02;;;16.47;62.31
79538;BME280;68989;52.032;5.152;2023-11-19T05:58:46;100874.87;;;16.47;62.32
79538;BME280;68989;52.032;5.152;2023-11-19T06:01:13;100874.81;;;16.47;62.27
79538;BME280;68989;52.032;5.152;2023-11-19T06:03:41;100872.23;;;16.46;62.28
79538;BME280;68989;52.032;5.152;2023-11-19T06:06:09;100877.42;;;16.44;62.11
79538;BME280;68989;52.032;5.152;2023-11-19T06:08:36;100876.97;;;16.44;62.29
79538;BME280;68989;52.032;5.152;2023-11-19T06:11:03;100876.45;;;16.44;62.23
79538;BME280;68989;52.032;5.152;2023-11-19T06:13:30;100874.84;;;16.44;62.07
79538;BME280;68989;52.032;5.152;2023-11-19T06:15:57;100865.96;;;16.43;62.04
79538;BME280;68989;52.032;5.152;2023-11-19T06:18:25;100859.89;;;16.43;62.05
79538;BME280;68989;52.032;5.152;2023-11-19T06:20:51;100856.39;;;16.41;61.85
79538;BME280;68989;52.032;5.152;2023-11-19T06:23:18;100862.33;;;16.41;62.16
79538;BME280;68989;52.032;5.152;2023-11-19T06:25:46;100859.16;;;16.41;62.18
79538;BME280;68989;52.032;5.152;2023-11-19T06:28:13;100865.67;;;16.39;62.05
79538;BME280;68989;52.032;5.152;2023-11-19T06:30:40;100865.98;;;16.39;62.15
79538;BME280;68989;52.032;5.152;2023-11-19T06:33:07;100870.21;;;16.38;62.05
79538;BME280;68989;52.032;5.152;2023-11-19T06:35:34;100875.86;;;16.38;62.04
79538;BME280;68989;52.032;5.152;2023-11-19T06:38:02;100874.28;;;16.37;62.07
79538;BME280;68989;52.032;5.152;2023-11-19T06:40:30;100878.64;;;16.35;61.94
79538;BME280;68989;52.032;5.152;2023-11-19T06:42:57;100880.47;;;16.34;61.89
79538;BME280;68989;52.032;5.152;2023-11-19T06:45:25;100877.92;;;16.32;61.98
79538;BME280;68989;52.032;5.152;2023-11-19T06:47:52;100886.61;;;16.32;62.21
79538;BME280;68989;52.032;5.152;2023-11-19T06:50:19;100886.46;;;16.32;62.12
79538;BME280;68989;52.032;5.152;2023-11-19T06:52:46;100885.61;;;16.31;62.04
79538;BME280;68989;52.032;5.152;2023-11-19T06:55:14;100895.71;;;16.31;61.98
79538;BME280;68989;52.032;5.152;2023-11-19T06:57:41;100893.77;;;16.30;62.10
79538;BME280;68989;52.032;5.152;2023-11-19T07:00:09;100898.71;;;16.28;62.03
79538;BME280;68989;52.032;5.152;2023-11-19T07:02:36;100908.03;;;16.27;61.86
79538;BME280;68989;52.032;5.152;2023-11-19T07:05:04;100906.89;;;16.26;61.93
79538;BME280;68989;52.032;5.152;2023-11-19T07:07:31;100901.50;;;16.24;61.78
79538;BME280;68989;52.032;5.152;2023-11-19T07:09:59;100907.99;;;16.24;61.96
79538;BME280;68989;52.032;5.152;2023-11-19T07:12:26;100908.50;;;16.25;61.91
79538;BME280;68989;52.032;5.152;2023-11-19T07:14:53;100912.14;;;16.25;61.94
79538;BME280;68989;52.032;5.152;2023-11-19T07:17:20;100910.67;;;16.25;61.94
79538;BME280;68989;52.032;5.152;2023-11-19T07:19:47;100914.75;;;16.25;61.95
79538;BME280;68989;52.032;5.152;2023-11-19T07:22:14;100922.35;;;16.26;62.08
79538;BME280;68989;52.032;5.152;2023-11-19T07:24:41;100918.48;;;16.26;62.11
79538;BME280;68989;52.032;5.152;2023-11-19T07:27:09;100918.31;;;16.27;62.14
79538;BME280;68989;52.032;5.152;2023-11-19T07:29:36;100917.26;;;16.28;62.22
79538;BME280;68989;52.032;5.152;2023-11-19T07:32:04;100928.23;;;16.30;62.47
79538;BME280;68989;52.032;5.152;2023-11-19T07:34:31;100930.07;;;16.33;62.61
79538;BME280;68989;52.032;5.152;2023-11-19T07:36:58;100931.78;;;16.35;62.76
79538;BME280;68989;52.032;5.152;2023-11-19T07:39:25;100925.08;;;16.38;62.81
79538;BME280;68989;52.032;5.152;2023-11-19T07:41:52;100924.88;;;16.40;62.88
79538;BME280;68989;52.032;5.152;2023-11-19T07:44:20;100926.86;;;16.42;62.92
79538;BME280;68989;52.032;5.152;2023-11-19T07:46:47;100926.48;;;16.45;62.82
79538;BME280;68989;52.032;5.152;2023-11-19T07:49:14;100925.04;;;16.46;62.79
79538;BME280;68989;52.032;5.152;2023-11-19T07:51:41;100926.52;;;16.47;62.68
79538;BME280;68989;52.032;5.152;2023-11-19T07:54:09;100927.09;;;16.47;62.62
79538;BME280;68989;52.032;5.152;2023-11-19T07:56:36;100927.96;;;16.46;62.49
79538;BME280;68989;52.032;5.152;2023-11-19T07:59:03;100933.05;;;16.46;62.44
79538;BME280;68989;52.032;5.152;2023-11-19T08:01:30;100937.29;;;16.45;62.44
79538;BME280;68989;52.032;5.152;2023-11-19T08:03:57;100931.42;;;16.50;62.47
79538;BME280;68989;52.032;5.152;2023-11-19T08:06:24;100927.33;;;16.50;62.64
79538;BME280;68989;52.032;5.152;2023-11-19T08:08:52;100925.60;;;16.54;62.90
79538;BME280;68989;52.032;5.152;2023-11-19T08:11:19;100932.21;;;16.52;63.13
79538;BME280;68989;52.032;5.152;2023-11-19T08:13:46;100925.16;;;16.55;63.34
79538;BME280;68989;52.032;5.152;2023-11-19T08:16:14;100933.40;;;16.56;63.41
79538;BME280;68989;52.032;5.152;2023-11-19T08:18:42;100928.18;;;16.58;63.55
79538;BME280;68989;52.032;5.152;2023-11-19T08:21:10;100921.70;;;16.61;63.57
79538;BME280;68989;52.032;5.152;2023-11-19T08:23:37;100927.45;;;16.64;63.61
79538;BME280;68989;52.032;5.152;2023-11-19T08:26:05;100935.06;;;16.67;63.57
79538;BME280;68989;52.032;5.152;2023-11-19T08:28:33;100937.71;;;16.68;63.36
79538;BME280;68989;52.032;5.152;2023-11-19T08:31:01;100937.13;;;16.69;63.32
79538;BME280;68989;52.032;5.152;2023-11-19T08:33:28;100930.92;;;16.69;63.19
79538;BME280;68989;52.032;5.152;2023-11-19T08:35:56;100934.53;;;16.70;63.18
79538;BME280;68989;52.032;5.152;2023-11-19T08:38:23;100932.67;;;16.71;63.33
79538;BME280;68989;52.032;5.152;2023-11-19T08:40:49;100939.86;;;16.72;63.25
79538;BME280;68989;52.032;5.152;2023-11-19T08:43:17;100942.53;;;16.75;63.38
79538;BME280;68989;52.032;5.152;2023-11-19T08:45:43;100942.26;;;16.76;63.21
79538;BME280;68989;52.032;5.152;2023-11-19T08:48:10;100942.31;;;16.79;63.33
79538;BME280;68989;52.032;5.152;2023-11-19T08:50:37;100943.19;;;16.80;63.42
79538;BME280;68989;52.032;5.152;2023-11-19T08:53:05;100940.76;;;16.82;63.48
79538;BME280;68989;52.032;5.152;2023-11-19T08:55:32;100946.57;;;16.83;63.44
79538;BME280;68989;52.032;5.152;2023-11-19T08:57:59;100946.80;;;16.85;63.76
79538;BME280;68989;52.032;5.152;2023-11-19T09:00:26;100943.81;;;16.86;63.69
79538;BME280;68989;52.032;5.152;2023-11-19T09:02:53;100942.02;;;16.90;63.90
79538;BME280;68989;52.032;5.152;2023-11-19T09:05:21;100944.69;;;16.94;63.92
79538;BME280;68989;52.032;5.152;2023-11-19T09:07:48;100941.12;;;17.00;63.90
79538;BME280;68989;52.032;5.152;2023-11-19T09:10:15;100939.12;;;17.03;64.17
79538;BME280;68989;52.032;5.152;2023-11-19T09:12:43;100937.66;;;17.09;64.36
79538;BME280;68989;52.032;5.152;2023-11-19T09:15:10;100936.50;;;17.11;64.45
79538;BME280;68989;52.032;5.152;2023-11-19T09:17:38;100933.05;;;17.15;64.26
79538;BME280;68989;52.032;5.152;2023-11-19T09:20:06;100938.45;;;17.19;64.26
79538;BME280;68989;52.032;5.152;2023-11-19T09:22:33;100941.72;;;17.23;64.17
79538;BME280;68989;52.032;5.152;2023-11-19T09:25:00;100942.69;;;17.25;64.16
79538;BME280;68989;52.032;5.152;2023-11-19T09:27:27;100937.73;;;17.30;64.00
79538;BME280;68989;52.032;5.152;2023-11-19T09:29:55;100932.67;;;17.34;63.88
79538;BME280;68989;52.032;5.152;2023-11-19T09:32:22;100931.35;;;17.34;63.81
79538;BME280;68989;52.032;5.152;2023-11-19T09:34:49;100930.44;;;17.38;63.97
79538;BME280;68989;52.032;5.152;2023-11-19T09:37:16;100930.05;;;17.43;64.12
79538;BME280;68989;52.032;5.152;2023-11-19T09:39:43;100934.56;;;17.47;64.21
79538;BME280;68989;52.032;5.152;2023-11-19T09:42:10;100936.18;;;17.53;64.42
79538;BME280;68989;52.032;5.152;2023-11-19T09:44:38;100936.78;;;17.60;64.05
79538;BME280;68989;52.032;5.152;2023-11-19T09:47:06;100934.91;;;17.65;63.93
79538;BME280;68989;52.032;5.152;2023-11-19T09:49:35;100928.80;;;17.69;63.87
79538;BME280;68989;52.032;5.152;2023-11-19T09:52:04;100932.19;;;17.70;63.56
79538;BME280;68989;52.032;5.152;2023-11-19T09:54:31;100929.13;;;17.73;63.41
79538;BME280;68989;52.032;5.152;2023-11-19T09:56:59;100929.91;;;17.76;63.30
79538;BME280;68989;52.032;5.152;2023-11-19T09:59:29;100932.44;;;17.78;63.03
79538;BME280;68989;52.032;5.152;2023-11-19T10:01:56;100932.20;;;17.81;63.17
79538;BME280;68989;52.032;5.152;2023-11-19T10:04:24;100926.01;;;17.83;63.06
79538;BME280;68989;52.032;5.152;2023-11-19T10:06:52;100916.57;;;17.86;63.07
79538;BME280;68989;52.032;5.152;2023-11-19T10:09:19;100912.15;;;17.88;62.83
79538;BME280;68989;52.032;5.152;2023-11-19T10:11:47;100911.14;;;17.90;62.63
79538;BME280;68989;52.032;5.152;2023-11-19T10:14:16;100917.50;;;17.89;62.30
79538;BME280;68989;52.032;5.152;2023-11-19T10:16:47;100914.79;;;17.88;62.30
79538;BME280;68989;52.032;5.152;2023-11-19T10:19:19;100909.65;;;17.86;62.10
79538;BME280;68989;52.032;5.152;2023-11-19T10:21:47;100905.74;;;17.86;62.02
79538;BME280;68989;52.032;5.152;2023-11-19T10:24:14;100905.50;;;17.87;61.95
79538;BME280;68989;52.032;5.152;2023-11-19T10:26:41;100905.43;;;17.86;61.89
79538;BME280;68989;52.032;5.152;2023-11-19T10:29:08;100907.57;;;17.86;61.80
79538;BME280;68989;52.032;5.152;2023-11-19T10:31:35;100906.17;;;17.86;61.79
79538;BME280;68989;52.032;5.152;2023-11-19T10:34:03;100906.88;;;17.86;62.02
79538;BME280;68989;52.032;5.152;2023-11-19T10:36:45;100906.21;;;17.86;62.39
79538;BME280;68989;52.032;5.152;2023-11-19T10:39:12;100904.37;;;17.90;62.66
79538;BME280;68989;52.032;5.152;2023-11-19T10:41:40;100905.34;;;17.94;62.46
79538;BME280;68989;52.032;5.152;2023-11-19T10:44:07;100899.92;;;17.96;62.22
79538;BME280;68989;52.032;5.152;2023-11-19T10:46:38;100898.33;;;17.97;61.90
79538;BME280;68989;52.032;5.152;2023-11-19T10:49:06;100901.98;;;17.96;61.76
79538;BME280;68989;52.032;5.152;2023-11-19T10:51:34;100894.68;;;17.97;61.74
79538;BME280;68989;52.032;5.152;2023-11-19T10:54:04;100902.39;;;17.96;61.60
79538;BME280;68989;52.032;5.152;2023-11-19T10:56:32;100904.47;;;17.96;61.69
79538;BME280;68989;52.032;5.152;2023-11-19T10:59:00;100903.81;;;17.96;61.56
79538;BME280;68989;52.032;5.152;2023-11-19T11:01:33;100911.65;;;17.96;61.71
79538;BME280;68989;52.032;5.152;2023-11-19T11:04:02;100912.76;;;17.97;61.79
79538;BME280;68989;52.032;5.152;2023-11-19T11:06:30;100912.96;;;17.99;62.09
79538;BME280;68989;52.032;5.152;2023-11-19T11:08:58;100912.11;;;18.03;62.21
79538;BME280;68989;52.032;5.152;2023-11-19T11:11:26;100913.45;;;18.07;62.41
79538;BME280;68989;52.032;5.152;2023-11-19T11:13:55;100913.13;;;18.11;62.32
79538;BME280;68989;52.032;5.152;2023-11-19T11:16:26;100906.95;;;18.15;62.24
79538;BME280;68989;52.032;5.152;2023-11-19T11:18:54;100910.53;;;18.20;62.35
79538;BME280;68989;52.032;5.152;2023-11-19T11:21:24;100910.36;;;18.22;62.05
79538;BME280;68989;52.032;5.152;2023-11-19T11:24:17;100907.66;;;18.23;61.84
79538;BME280;68989;52.032;5.152;2023-11-19T11:27:20;100904.79;;;18.25;61.94
79538;BME280;68989;52.032;5.152;2023-11-19T11:30:02;100897.38;;;18.30;62.06
79538;BME280;68989;52.032;5.152;2023-11-19T11:32:37;100899.88;;;18.36;62.32
79538;BME280;68989;52.032;5.152;2023-11-19T11:35:24;100895.44;;;18.41;62.17
79538;BME280;68989;52.032;5.152;2023-11-19T11:38:01;100890.20;;;18.48;62.20
79538;BME280;68989;52.032;5.152;2023-11-19T11:40:30;100885.42;;;18.51;61.83
79538;BME280;68989;52.032;5.152;2023-11-19T11:42:57;100885.27;;;18.54;61.90
79538;BME280;68989;52.032;5.152;2023-11-19T11:45:35;100883.49;;;18.56;61.69
79538;BME280;68989;52.032;5.152;2023-11-19T11:48:09;100877.50;;;18.58;61.41
79538;BME280;68989;52.032;5.152;2023-11-19T11:50:50;100877.10;;;18.59;61.24
79538;BME280;68989;52.032;5.152;2023-11-19T11:53:18;100875.73;;;18.61;61.35
79538;BME280;68989;52.032;5.152;2023-11-19T11:56:01;100874.93;;;18.64;60.87
79538;BME280;68989;52.032;5.152;2023-11-19T11:58:31;100869.59;;;18.68;61.36
79538;BME280;68989;52.032;5.152;2023-11-19T12:01:01;100865.66;;;18.70;61.32
79538;BME280;68989;52.032;5.152;2023-11-19T12:03:29;100865.35;;;18.75;61.42
79538;BME280;68989;52.032;5.152;2023-11-19T12:05:58;100865.04;;;18.77;61.13
79538;BME280;68989;52.032;5.152;2023-11-19T12:08:27;100860.39;;;18.82;61.40
79538;BME280;68989;52.032;5.152;2023-11-19T12:10:54;100858.96;;;18.86;61.40
79538;BME280;68989;52.032;5.152;2023-11-19T12:13:22;100852.91;;;18.92;61.46
79538;BME280;68989;52.032;5.152;2023-11-19T12:16:07;100857.23;;;19.00;61.50
79538;BME280;68989;52.032;5.152;2023-11-19T12:18:34;100846.98;;;19.03;61.36
79538;BME280;68989;52.032;5.152;2023-11-19T12:21:01;100850.90;;;19.08;61.09
79538;BME280;68989;52.032;5.152;2023-11-19T12:23:30;100852.08;;;19.10;60.83
79538;BME280;68989;52.032;5.152;2023-11-19T12:25:57;100855.66;;;19.14;60.93
79538;BME280;68989;52.032;5.152;2023-11-19T12:28:25;100863.16;;;19.18;60.99
79538;BME280;68989;52.032;5.152;2023-11-19T12:30:52;100860.42;;;19.22;60.98
79538;BME280;68989;52.032;5.152;2023-11-19T12:33:20;100864.35;;;19.26;60.75
79538;BME280;68989;52.032;5.152;2023-11-19T12:35:48;100866.49;;;19.30;60.59
79538;BME280;68989;52.032;5.152;2023-11-19T12:38:19;100857.45;;;19.34;60.41
79538;BME280;68989;52.032;5.152;2023-11-19T12:40:46;100871.16;;;19.37;60.49
79538;BME280;68989;52.032;5.152;2023-11-19T12:43:21;100857.59;;;19.40;60.35
79538;BME280;68989;52.032;5.152;2023-11-19T12:45:49;100858.53;;;19.42;60.06
79538;BME280;68989;52.032;5.152;2023-11-19T12:48:16;100862.00;;;19.47;60.31
79538;BME280;68989;52.032;5.152;2023-11-19T12:50:52;100858.52;;;19.50;60.08
79538;BME280;68989;52.032;5.152;2023-11-19T12:53:20;100853.30;;;19.50;59.48
79538;BME280;68989;52.032;5.152;2023-11-19T12:55:47;100859.10;;;19.50;59.29